createdAt,value
2017-02-13T00:00:29.093Z,948.8
2017-02-13T00:01:37.187Z,948.8
2017-02-13T00:02:45.280Z,948.8
2017-02-13T00:03:53.361Z,948.8
2017-02-13T00:05:01.576Z,948.8
2017-02-13T00:06:09.601Z,948.9
2017-02-13T00:07:17.627Z,948.9
2017-02-13T00:08:25.720Z,948.9
2017-02-13T00:09:33.862Z,948.9
2017-02-13T00:10:41.941Z,948.9
2017-02-13T00:11:49.977Z,948.9
2017-02-13T00:12:58.069Z,948.9
2017-02-13T00:14:06.342Z,948.9
2017-02-13T00:15:14.237Z,948.9
2017-02-13T00:16:22.453Z,948.9
2017-02-13T00:17:30.419Z,948.8
2017-02-13T00:18:38.508Z,948.8
2017-02-13T00:19:46.592Z,948.7
2017-02-13T00:20:54.682Z,948.8
2017-02-13T00:22:02.822Z,948.8
2017-02-13T00:23:10.853Z,948.8
2017-02-13T00:24:19.079Z,948.7
2017-02-13T00:25:27.148Z,948.8
2017-02-13T00:26:35.123Z,948.8
2017-02-13T00:27:43.323Z,948.8
2017-02-13T00:28:51.293Z,948.8
2017-02-13T00:29:59.379Z,948.8
2017-02-13T00:31:07.459Z,948.8
2017-02-13T00:32:15.555Z,948.8
2017-02-13T00:33:23.702Z,948.8
2017-02-13T00:34:31.729Z,948.8
2017-02-13T00:35:39.875Z,948.8
2017-02-13T00:36:47.905Z,948.8
2017-02-13T00:37:56.110Z,948.8
2017-02-13T00:39:04.132Z,948.8
2017-02-13T00:40:12.348Z,948.8
2017-02-13T00:41:20.251Z,948.8
2017-02-13T00:42:28.331Z,948.7
2017-02-13T00:43:36.421Z,948.7
2017-02-13T00:44:44.564Z,948.8
2017-02-13T00:45:52.601Z,948.7
2017-02-13T00:47:00.700Z,948.7
2017-02-13T00:48:08.763Z,948.8
2017-02-13T00:49:16.850Z,948.8
2017-02-13T00:50:25.051Z,948.8
2017-02-13T00:51:33.190Z,948.8
2017-02-13T00:52:41.105Z,948.8
2017-02-13T00:53:49.247Z,948.9
2017-02-13T00:54:57.276Z,948.8
2017-02-13T00:56:05.418Z,948.9
2017-02-13T00:57:13.456Z,948.9
2017-02-13T00:58:21.541Z,948.9
2017-02-13T00:59:29.631Z,948.9
2017-02-13T01:00:37.718Z,948.9
2017-02-13T01:01:45.932Z,948.9
2017-02-13T01:02:53.892Z,948.9
2017-02-13T01:04:01.987Z,948.9
2017-02-13T01:05:10.076Z,948.9
2017-02-13T01:06:18.162Z,948.9
2017-02-13T01:07:26.311Z,948.9
2017-02-13T01:08:34.335Z,949.0
2017-02-13T01:09:42.541Z,949.0
2017-02-13T01:10:50.506Z,948.9
2017-02-13T01:11:58.595Z,948.9
2017-02-13T01:13:06.927Z,948.9
2017-02-13T01:14:14.767Z,948.9
2017-02-13T01:15:22.857Z,948.9
2017-02-13T01:16:30.942Z,948.9
2017-02-13T01:17:39.030Z,948.9
2017-02-13T01:18:47.166Z,948.9
2017-02-13T01:19:55.202Z,948.9
2017-02-13T01:21:03.292Z,948.8
2017-02-13T01:22:11.381Z,948.8
2017-02-13T01:23:19.588Z,948.8
2017-02-13T01:24:27.811Z,948.7
2017-02-13T01:25:35.700Z,948.8
2017-02-13T01:26:43.722Z,948.8
2017-02-13T01:27:51.812Z,948.8
2017-02-13T01:28:59.896Z,948.8
2017-02-13T01:30:08.037Z,948.8
2017-02-13T01:31:16.071Z,948.9
2017-02-13T01:32:24.160Z,948.8
2017-02-13T01:33:32.246Z,948.8
2017-02-13T01:34:40.337Z,948.8
2017-02-13T01:35:48.543Z,948.8
2017-02-13T01:36:56.516Z,948.8
2017-02-13T01:38:04.596Z,948.7
2017-02-13T01:39:12.685Z,948.8
2017-02-13T01:40:20.777Z,948.8
2017-02-13T01:41:28.927Z,948.7
2017-02-13T01:42:36.955Z,948.7
2017-02-13T01:43:45.039Z,948.8
2017-02-13T01:44:53.216Z,948.7
2017-02-13T01:46:01.284Z,948.8
2017-02-13T01:47:09.425Z,948.8
2017-02-13T01:48:17.393Z,948.8
2017-02-13T01:49:25.477Z,948.8
2017-02-13T01:50:33.565Z,948.8
2017-02-13T01:51:41.654Z,948.7
2017-02-13T01:52:49.796Z,948.8
2017-02-13T01:53:57.822Z,948.8
2017-02-13T01:55:05.913Z,948.8
2017-02-13T01:56:14.054Z,948.9
2017-02-13T01:57:22.201Z,948.9
2017-02-13T01:58:30.227Z,948.8
2017-02-13T01:59:38.256Z,948.8
2017-02-13T02:00:46.430Z,948.9
2017-02-13T02:01:54.427Z,948.8
2017-02-13T02:03:02.519Z,948.8
2017-02-13T02:04:10.664Z,948.9
2017-02-13T02:05:18.694Z,948.8
2017-02-13T02:06:26.835Z,948.8
2017-02-13T02:07:34.911Z,948.8
2017-02-13T02:08:42.950Z,948.8
2017-02-13T02:09:51.090Z,948.8
2017-02-13T02:10:59.258Z,948.7
2017-02-13T02:12:07.210Z,948.7
2017-02-13T02:13:15.422Z,948.7
2017-02-13T02:14:23.399Z,948.7
2017-02-13T02:15:31.545Z,948.6
2017-02-13T02:16:39.575Z,948.6
2017-02-13T02:17:47.736Z,948.6
2017-02-13T02:18:55.746Z,948.6
2017-02-13T02:20:03.832Z,948.6
2017-02-13T02:21:11.979Z,948.6
2017-02-13T02:22:20.014Z,948.7
2017-02-13T02:23:28.100Z,948.7
2017-02-13T02:24:36.182Z,948.7
2017-02-13T02:25:44.268Z,948.6
2017-02-13T02:26:52.414Z,948.7
2017-02-13T02:28:00.463Z,948.6
2017-02-13T02:29:08.691Z,948.6
2017-02-13T02:30:16.616Z,948.6
2017-02-13T02:31:24.703Z,948.6
2017-02-13T02:32:32.907Z,948.6
2017-02-13T02:33:40.885Z,948.6
2017-02-13T02:34:48.974Z,948.6
2017-02-13T02:35:57.064Z,948.6
2017-02-13T02:37:05.141Z,948.6
2017-02-13T02:38:13.286Z,948.6
2017-02-13T02:39:21.315Z,948.6
2017-02-13T02:40:29.405Z,948.5
2017-02-13T02:41:37.483Z,948.5
2017-02-13T02:42:45.577Z,948.5
2017-02-13T02:43:53.786Z,948.5
2017-02-13T02:45:01.847Z,948.5
2017-02-13T02:46:09.838Z,948.5
2017-02-13T02:47:17.923Z,948.5
2017-02-13T02:48:26.005Z,948.4
2017-02-13T02:49:34.150Z,948.5
2017-02-13T02:50:42.255Z,948.4
2017-02-13T02:51:50.264Z,948.5
2017-02-13T02:52:58.350Z,948.5
2017-02-13T02:54:06.438Z,948.5
2017-02-13T02:55:14.583Z,948.5
2017-02-13T02:56:22.610Z,948.5
2017-02-13T02:57:30.700Z,948.5
2017-02-13T02:58:38.785Z,948.5
2017-02-13T02:59:46.868Z,948.5
2017-02-13T03:00:55.163Z,948.5
2017-02-13T03:02:03.110Z,948.5
2017-02-13T03:03:11.126Z,948.4
2017-02-13T03:04:19.213Z,948.5
2017-02-13T03:05:27.300Z,948.4
2017-02-13T03:06:35.442Z,948.4
2017-02-13T03:07:43.471Z,948.5
2017-02-13T03:08:51.555Z,948.4
2017-02-13T03:09:59.642Z,948.4
2017-02-13T03:11:07.727Z,948.4
2017-02-13T03:12:15.986Z,948.4
2017-02-13T03:13:23.899Z,948.4
2017-02-13T03:14:31.984Z,948.4
2017-02-13T03:15:40.074Z,948.4
2017-02-13T03:16:48.402Z,948.4
2017-02-13T03:17:56.300Z,948.4
2017-02-13T03:19:04.331Z,948.4
2017-02-13T03:20:12.412Z,948.4
2017-02-13T03:21:20.502Z,948.4
2017-02-13T03:22:28.649Z,948.4
2017-02-13T03:23:36.833Z,948.4
2017-02-13T03:24:44.758Z,948.4
2017-02-13T03:25:52.848Z,948.4
2017-02-13T03:27:00.936Z,948.3
2017-02-13T03:28:09.020Z,948.4
2017-02-13T03:29:17.162Z,948.3
2017-02-13T03:30:25.197Z,948.3
2017-02-13T03:31:33.279Z,948.3
2017-02-13T03:32:41.485Z,948.4
2017-02-13T03:33:49.468Z,948.4
2017-02-13T03:34:57.596Z,948.4
2017-02-13T03:36:05.623Z,948.4
2017-02-13T03:37:13.716Z,948.3
2017-02-13T03:38:21.797Z,948.4
2017-02-13T03:39:29.884Z,948.4
2017-02-13T03:40:38.031Z,948.3
2017-02-13T03:41:46.070Z,948.3
2017-02-13T03:42:54.158Z,948.3
2017-02-13T03:44:02.358Z,948.3
2017-02-13T03:45:10.367Z,948.3
2017-02-13T03:46:18.542Z,948.3
2017-02-13T03:47:26.503Z,948.3
2017-02-13T03:48:34.647Z,948.3
2017-02-13T03:49:42.685Z,948.3
2017-02-13T03:50:50.771Z,948.3
2017-02-13T03:51:58.914Z,948.3
2017-02-13T03:53:06.954Z,948.3
2017-02-13T03:54:15.038Z,948.4
2017-02-13T03:55:23.238Z,948.4
2017-02-13T03:56:31.213Z,948.4
2017-02-13T03:57:39.425Z,948.5
2017-02-13T03:58:47.391Z,948.5
2017-02-13T03:59:55.482Z,948.5
2017-02-13T04:01:03.586Z,948.5
2017-02-13T04:02:11.661Z,948.5
2017-02-13T04:03:19.803Z,948.4
2017-02-13T04:04:27.955Z,948.5
2017-02-13T04:05:35.992Z,948.4
2017-02-13T04:06:44.053Z,948.4
2017-02-13T04:07:52.089Z,948.5
2017-02-13T04:09:00.234Z,948.4
2017-02-13T04:10:08.263Z,948.5
2017-02-13T04:11:16.434Z,948.4
2017-02-13T04:12:24.439Z,948.4
2017-02-13T04:13:32.555Z,948.4
2017-02-13T04:14:40.740Z,948.5
2017-02-13T04:15:48.701Z,948.5
2017-02-13T04:16:56.817Z,948.5
2017-02-13T04:18:04.873Z,948.5
2017-02-13T04:19:12.965Z,948.5
2017-02-13T04:20:21.112Z,948.5
2017-02-13T04:21:29.263Z,948.5
2017-02-13T04:22:37.226Z,948.6
2017-02-13T04:23:45.318Z,948.5
2017-02-13T04:24:53.408Z,948.5
2017-02-13T04:26:01.553Z,948.6
2017-02-13T04:27:09.584Z,948.5
2017-02-13T04:28:17.670Z,948.6
2017-02-13T04:29:25.757Z,948.6
2017-02-13T04:30:33.841Z,948.6
2017-02-13T04:31:42.044Z,948.6
2017-02-13T04:32:50.075Z,948.5
2017-02-13T04:33:58.100Z,948.5
2017-02-13T04:35:06.186Z,948.5
2017-02-13T04:36:14.355Z,948.6
2017-02-13T04:37:22.487Z,948.6
2017-02-13T04:38:30.452Z,948.6
2017-02-13T04:39:38.538Z,948.6
2017-02-13T04:40:46.624Z,948.6
2017-02-13T04:41:54.711Z,948.6
2017-02-13T04:43:02.940Z,948.6
2017-02-13T04:44:10.959Z,948.6
2017-02-13T04:45:18.970Z,948.5
2017-02-13T04:46:27.053Z,948.5
2017-02-13T04:47:35.141Z,948.6
2017-02-13T04:48:43.360Z,948.6
2017-02-13T04:49:51.326Z,948.5
2017-02-13T04:50:59.409Z,948.5
2017-02-13T04:52:07.555Z,948.5
2017-02-13T04:53:15.584Z,948.5
2017-02-13T04:54:23.940Z,948.5
2017-02-13T04:55:31.752Z,948.5
2017-02-13T04:56:39.840Z,948.6
2017-02-13T04:57:47.923Z,948.5
2017-02-13T04:58:56.014Z,948.6
2017-02-13T05:00:04.154Z,948.6
2017-02-13T05:01:12.186Z,948.6
2017-02-13T05:02:20.272Z,948.6
2017-02-13T05:03:28.360Z,948.7
2017-02-13T05:04:36.598Z,948.6
2017-02-13T05:05:44.786Z,948.7
2017-02-13T05:06:52.616Z,948.6
2017-02-13T05:08:00.762Z,948.6
2017-02-13T05:09:08.792Z,948.6
2017-02-13T05:10:16.875Z,948.6
2017-02-13T05:11:25.027Z,948.6
2017-02-13T05:12:33.050Z,948.6
2017-02-13T05:13:41.136Z,948.6
2017-02-13T05:14:49.217Z,948.6
2017-02-13T05:15:57.323Z,948.6
2017-02-13T05:17:05.456Z,948.6
2017-02-13T05:18:13.489Z,948.5
2017-02-13T05:19:21.575Z,948.6
2017-02-13T05:20:29.662Z,948.5
2017-02-13T05:21:37.746Z,948.5
2017-02-13T05:22:45.954Z,948.5
2017-02-13T05:23:53.982Z,948.5
2017-02-13T05:25:02.008Z,948.5
2017-02-13T05:26:10.147Z,948.5
2017-02-13T05:27:18.235Z,948.5
2017-02-13T05:28:26.332Z,948.5
2017-02-13T05:29:34.358Z,948.6
2017-02-13T05:30:42.472Z,948.5
2017-02-13T05:31:50.530Z,948.6
2017-02-13T05:32:58.616Z,948.5
2017-02-13T05:34:06.822Z,948.6
2017-02-13T05:35:14.790Z,948.6
2017-02-13T05:36:22.875Z,948.6
2017-02-13T05:37:31.036Z,948.6
2017-02-13T05:38:39.043Z,948.6
2017-02-13T05:39:47.253Z,948.5
2017-02-13T05:40:55.222Z,948.5
2017-02-13T05:42:03.303Z,948.6
2017-02-13T05:43:11.395Z,948.5
2017-02-13T05:44:19.479Z,948.5
2017-02-13T05:45:27.619Z,948.6
2017-02-13T05:46:35.648Z,948.6
2017-02-13T05:47:43.748Z,948.5
2017-02-13T05:48:51.832Z,948.5
2017-02-13T05:49:59.907Z,948.6
2017-02-13T05:51:08.119Z,948.6
2017-02-13T05:52:16.094Z,948.5
2017-02-13T05:53:24.360Z,948.5
2017-02-13T05:54:32.262Z,948.5
2017-02-13T05:55:40.413Z,948.5
2017-02-13T05:56:48.559Z,948.5
2017-02-13T05:57:56.522Z,948.5
2017-02-13T05:59:04.611Z,948.4
2017-02-13T06:00:12.701Z,948.4
2017-02-13T06:01:20.796Z,948.4
2017-02-13T06:02:28.941Z,948.4
2017-02-13T06:03:37.131Z,948.5
2017-02-13T06:04:45.124Z,948.5
2017-02-13T06:05:53.139Z,948.5
2017-02-13T06:07:01.226Z,948.5
2017-02-13T06:08:09.369Z,948.5
2017-02-13T06:09:17.395Z,948.5
2017-02-13T06:10:25.488Z,948.5
2017-02-13T06:11:33.624Z,948.5
2017-02-13T06:12:41.656Z,948.5
2017-02-13T06:13:49.857Z,948.5
2017-02-13T06:14:57.986Z,948.5
2017-02-13T06:16:05.913Z,948.6
2017-02-13T06:17:14.006Z,948.5
2017-02-13T06:18:22.091Z,948.5
2017-02-13T06:19:30.231Z,948.5
2017-02-13T06:20:38.308Z,948.6
2017-02-13T06:21:46.345Z,948.5
2017-02-13T06:22:54.430Z,948.5
2017-02-13T06:24:02.516Z,948.5
2017-02-13T06:25:10.720Z,948.4
2017-02-13T06:26:18.689Z,948.5
2017-02-13T06:27:26.836Z,948.5
2017-02-13T06:28:34.864Z,948.5
2017-02-13T06:29:42.944Z,948.4
2017-02-13T06:30:51.092Z,948.5
2017-02-13T06:31:59.149Z,948.5
2017-02-13T06:33:07.205Z,948.5
2017-02-13T06:34:15.295Z,948.5
2017-02-13T06:35:23.380Z,948.5
2017-02-13T06:36:31.768Z,948.4
2017-02-13T06:37:39.549Z,948.5
2017-02-13T06:38:47.641Z,948.5
2017-02-13T06:39:55.727Z,948.5
2017-02-13T06:41:03.810Z,948.5
2017-02-13T06:42:11.961Z,948.5
2017-02-13T06:43:20.113Z,948.6
2017-02-13T06:44:28.062Z,948.5
2017-02-13T06:45:36.152Z,948.6
2017-02-13T06:46:44.413Z,948.5
2017-02-13T06:47:52.499Z,948.6
2017-02-13T06:49:00.419Z,948.5
2017-02-13T06:50:08.508Z,948.5
2017-02-13T06:51:16.594Z,948.5
2017-02-13T06:52:24.683Z,948.5
2017-02-13T06:53:32.885Z,948.5
2017-02-13T06:54:40.852Z,948.4
2017-02-13T06:55:48.939Z,948.5
2017-02-13T06:56:57.024Z,948.4
2017-02-13T06:58:05.244Z,948.4
2017-02-13T06:59:13.258Z,948.5
2017-02-13T07:00:21.285Z,948.4
2017-02-13T07:01:29.372Z,948.5
2017-02-13T07:02:37.470Z,948.5
2017-02-13T07:03:45.562Z,948.5
2017-02-13T07:04:53.773Z,948.5
2017-02-13T07:06:01.729Z,948.4
2017-02-13T07:07:09.819Z,948.5
2017-02-13T07:08:18.029Z,948.4
2017-02-13T07:09:26.161Z,948.5
2017-02-13T07:10:34.127Z,948.4
2017-02-13T07:11:42.151Z,948.5
2017-02-13T07:12:50.239Z,948.5
2017-02-13T07:13:58.335Z,948.5
2017-02-13T07:15:06.540Z,948.5
2017-02-13T07:16:15.267Z,948.5
2017-02-13T07:17:22.592Z,948.5
2017-02-13T07:18:30.682Z,948.5
2017-02-13T07:19:38.993Z,948.5
2017-02-13T07:20:46.850Z,948.5
2017-02-13T07:21:54.998Z,948.5
2017-02-13T07:23:03.031Z,948.5
2017-02-13T07:24:11.117Z,948.5
2017-02-13T07:25:19.898Z,948.6
2017-02-13T07:26:27.296Z,948.6
2017-02-13T07:27:35.495Z,948.6
2017-02-13T07:28:43.455Z,948.6
2017-02-13T07:29:51.541Z,948.6
2017-02-13T07:31:00.768Z,948.6
2017-02-13T07:32:08.078Z,948.6
2017-02-13T07:33:17.636Z,948.6
2017-02-13T07:34:24.398Z,948.7
2017-02-13T07:35:31.973Z,948.6
2017-02-13T07:36:40.107Z,948.6
2017-02-13T07:37:48.148Z,948.6
2017-02-13T07:38:56.351Z,948.6
2017-02-13T07:40:05.013Z,948.7
2017-02-13T07:41:13.083Z,948.6
2017-02-13T07:42:20.486Z,948.7
2017-02-13T07:43:29.020Z,948.7
2017-02-13T07:44:36.773Z,948.6
2017-02-13T07:45:45.411Z,948.6
2017-02-13T07:46:53.333Z,948.7
2017-02-13T07:48:01.411Z,948.7
2017-02-13T07:49:09.334Z,948.7
2017-02-13T07:50:17.210Z,948.7
2017-02-13T07:51:25.181Z,948.6
2017-02-13T07:52:33.508Z,948.7
2017-02-13T07:53:41.359Z,948.7
2017-02-13T07:54:49.448Z,948.6
2017-02-13T07:55:57.903Z,948.7
2017-02-13T07:57:05.625Z,948.6
2017-02-13T07:58:13.783Z,948.6
2017-02-13T07:59:22.149Z,948.6
2017-02-13T08:00:29.875Z,948.7
2017-02-13T08:01:38.089Z,948.7
2017-02-13T08:02:46.232Z,948.7
2017-02-13T08:03:54.257Z,948.7
2017-02-13T08:05:02.237Z,948.7
2017-02-13T08:06:10.319Z,948.7
2017-02-13T08:07:18.524Z,948.7
2017-02-13T08:08:26.478Z,948.7
2017-02-13T08:09:34.577Z,948.7
2017-02-13T08:10:42.650Z,948.7
2017-02-13T08:11:50.740Z,948.7
2017-02-13T08:12:58.949Z,948.7
2017-02-13T08:14:06.989Z,948.6
2017-02-13T08:15:15.002Z,948.7
2017-02-13T08:16:23.084Z,948.7
2017-02-13T08:17:31.172Z,948.7
2017-02-13T08:18:39.547Z,948.6
2017-02-13T08:19:47.337Z,948.6
2017-02-13T08:20:55.432Z,948.6
2017-02-13T08:22:03.520Z,948.6
2017-02-13T08:23:11.601Z,948.6
2017-02-13T08:24:19.862Z,948.6
2017-02-13T08:25:27.850Z,948.6
2017-02-13T08:26:35.867Z,948.5
2017-02-13T08:27:43.949Z,948.6
2017-02-13T08:28:52.034Z,948.5
2017-02-13T08:30:00.189Z,948.5
2017-02-13T08:31:08.426Z,948.5
2017-02-13T08:32:16.292Z,948.6
2017-02-13T08:33:24.377Z,948.6
2017-02-13T08:34:32.520Z,948.6
2017-02-13T08:35:42.182Z,948.6
2017-02-13T08:36:48.646Z,948.6
2017-02-13T08:37:56.736Z,948.6
2017-02-13T08:39:05.244Z,948.6
2017-02-13T08:40:12.901Z,948.5
2017-02-13T08:41:21.117Z,948.6
2017-02-13T08:42:29.077Z,948.6
2017-02-13T08:43:37.158Z,948.5
2017-02-13T08:44:45.249Z,948.6
2017-02-13T08:45:53.364Z,948.5
2017-02-13T08:47:01.548Z,948.6
2017-02-13T08:48:09.516Z,948.6
2017-02-13T08:49:17.609Z,948.6
2017-02-13T08:50:25.888Z,948.6
2017-02-13T08:51:33.777Z,948.7
2017-02-13T08:52:42.217Z,948.7
2017-02-13T08:53:50.200Z,948.6
2017-02-13T08:54:58.038Z,948.6
2017-02-13T08:56:06.127Z,948.6
2017-02-13T08:57:14.215Z,948.6
2017-02-13T08:58:22.416Z,948.6
2017-02-13T08:59:30.483Z,948.6
2017-02-13T09:00:38.482Z,948.6
2017-02-13T09:01:46.567Z,948.5
2017-02-13T09:02:54.650Z,948.5
2017-02-13T09:04:02.860Z,948.5
2017-02-13T09:05:10.829Z,948.5
2017-02-13T09:06:18.975Z,948.5
2017-02-13T09:07:27.055Z,948.5
2017-02-13T09:08:35.131Z,948.6
2017-02-13T09:09:43.293Z,948.6
2017-02-13T09:10:51.255Z,948.6
2017-02-13T09:11:59.455Z,948.5
2017-02-13T09:13:07.592Z,948.5
2017-02-13T09:14:15.518Z,948.6
2017-02-13T09:15:23.728Z,948.5
2017-02-13T09:16:31.704Z,948.5
2017-02-13T09:17:39.785Z,948.5
2017-02-13T09:18:47.883Z,948.5
2017-02-13T09:19:56.600Z,948.5
2017-02-13T09:21:04.168Z,948.5
2017-02-13T09:22:12.187Z,948.5
2017-02-13T09:23:20.220Z,948.6
2017-02-13T09:24:28.309Z,948.6
2017-02-13T09:25:36.396Z,948.5
2017-02-13T09:26:44.599Z,948.6
2017-02-13T09:27:52.566Z,948.5
2017-02-13T09:29:00.849Z,948.6
2017-02-13T09:30:08.736Z,948.5
2017-02-13T09:31:16.825Z,948.6
2017-02-13T09:32:25.027Z,948.5
2017-02-13T09:33:33.248Z,948.5
2017-02-13T09:34:41.081Z,948.5
2017-02-13T09:35:49.176Z,948.5
2017-02-13T09:36:57.259Z,948.6
2017-02-13T09:38:05.705Z,948.6
2017-02-13T09:39:13.474Z,948.5
2017-02-13T09:40:21.516Z,948.6
2017-02-13T09:41:30.077Z,948.5
2017-02-13T09:42:37.682Z,948.4
2017-02-13T09:43:45.938Z,948.5
2017-02-13T09:44:53.883Z,948.5
2017-02-13T09:46:01.973Z,948.5
2017-02-13T09:47:10.029Z,948.5
2017-02-13T09:48:18.117Z,948.5
2017-02-13T09:49:26.518Z,948.5
2017-02-13T09:50:34.352Z,948.5
2017-02-13T09:51:42.367Z,948.5
2017-02-13T09:52:50.457Z,948.5
2017-02-13T09:53:58.599Z,948.5
2017-02-13T09:55:06.750Z,948.5
2017-02-13T09:56:14.998Z,948.5
2017-02-13T09:57:22.800Z,948.6
2017-02-13T09:58:30.885Z,948.5
2017-02-13T09:59:39.218Z,948.5
2017-02-13T10:00:47.185Z,948.6
2017-02-13T10:01:55.150Z,948.5
2017-02-13T10:03:03.241Z,948.5
2017-02-13T10:04:11.332Z,948.5
2017-02-13T10:05:19.417Z,948.5
2017-02-13T10:06:27.619Z,948.5
2017-02-13T10:07:35.642Z,948.5
2017-02-13T10:08:43.673Z,948.6
2017-02-13T10:09:51.810Z,948.5
2017-02-13T10:10:59.843Z,948.5
2017-02-13T10:12:07.984Z,948.5
2017-02-13T10:13:16.011Z,948.5
2017-02-13T10:14:24.098Z,948.5
2017-02-13T10:15:32.186Z,948.5
2017-02-13T10:16:40.273Z,948.6
2017-02-13T10:17:48.477Z,948.6
2017-02-13T10:18:56.445Z,948.6
2017-02-13T10:20:04.537Z,948.6
2017-02-13T10:21:12.619Z,948.5
2017-02-13T10:22:20.870Z,948.6
2017-02-13T10:23:28.920Z,948.6
2017-02-13T10:24:36.887Z,948.6
2017-02-13T10:25:45.027Z,948.6
2017-02-13T10:26:53.059Z,948.6
2017-02-13T10:28:01.299Z,948.6
2017-02-13T10:29:09.289Z,948.6
2017-02-13T10:30:17.321Z,948.6
2017-02-13T10:31:25.406Z,948.6
2017-02-13T10:32:33.493Z,948.6
2017-02-13T10:33:41.681Z,948.6
2017-02-13T10:34:49.720Z,948.5
2017-02-13T10:35:57.748Z,948.5
2017-02-13T10:37:05.830Z,948.5
2017-02-13T10:38:13.917Z,948.5
2017-02-13T10:39:22.400Z,948.5
2017-02-13T10:40:30.625Z,948.5
2017-02-13T10:41:38.295Z,948.5
2017-02-13T10:42:46.273Z,948.5
2017-02-13T10:43:54.358Z,948.5
2017-02-13T10:45:02.441Z,948.4
2017-02-13T10:46:10.593Z,948.4
2017-02-13T10:47:18.618Z,948.4
2017-02-13T10:48:26.701Z,948.4
2017-02-13T10:49:34.974Z,948.3
2017-02-13T10:50:42.884Z,948.3
2017-02-13T10:51:51.025Z,948.3
2017-02-13T10:52:59.054Z,948.3
2017-02-13T10:54:07.137Z,948.3
2017-02-13T10:55:15.231Z,948.3
2017-02-13T10:56:23.304Z,948.3
2017-02-13T10:57:32.189Z,948.2
2017-02-13T10:58:39.481Z,948.2
2017-02-13T10:59:47.564Z,948.3
2017-02-13T11:00:55.647Z,948.3
2017-02-13T11:02:03.736Z,948.2
2017-02-13T11:03:11.943Z,948.2
2017-02-13T11:04:19.917Z,948.3
2017-02-13T11:05:28.079Z,948.3
2017-02-13T11:06:36.100Z,948.2
2017-02-13T11:07:44.181Z,948.2
2017-02-13T11:08:52.380Z,948.2
2017-02-13T11:10:00.470Z,948.2
2017-02-13T11:11:08.436Z,948.2
2017-02-13T11:12:16.528Z,948.2
2017-02-13T11:13:24.736Z,948.1
2017-02-13T11:14:32.768Z,948.1
2017-02-13T11:15:40.794Z,948.1
2017-02-13T11:16:48.969Z,948.1
2017-02-13T11:17:56.967Z,948.1
2017-02-13T11:19:05.051Z,948.1
2017-02-13T11:20:13.189Z,948.1
2017-02-13T11:21:21.341Z,948.2
2017-02-13T11:22:29.337Z,948.1
2017-02-13T11:23:37.388Z,948.1
2017-02-13T11:24:45.475Z,948.1
2017-02-13T11:25:54.075Z,948.2
2017-02-13T11:27:01.720Z,948.1
2017-02-13T11:28:09.808Z,948.1
2017-02-13T11:29:17.951Z,948.1
2017-02-13T11:30:25.920Z,948.0
2017-02-13T11:31:34.067Z,948.0
2017-02-13T11:32:42.094Z,948.0
2017-02-13T11:33:50.192Z,948.0
2017-02-13T11:34:58.275Z,947.9
2017-02-13T11:36:06.355Z,947.9
2017-02-13T11:37:14.566Z,947.9
2017-02-13T11:38:22.530Z,947.9
2017-02-13T11:39:30.614Z,947.8
2017-02-13T11:40:38.701Z,947.9
2017-02-13T11:41:46.797Z,947.8
2017-02-13T11:42:55.100Z,947.8
2017-02-13T11:44:02.967Z,947.8
2017-02-13T11:45:11.116Z,947.8
2017-02-13T11:46:19.144Z,947.8
2017-02-13T11:47:27.228Z,947.8
2017-02-13T11:48:35.430Z,947.8
2017-02-13T11:49:43.400Z,948.0
2017-02-13T11:50:51.744Z,947.9
2017-02-13T11:51:59.575Z,947.8
2017-02-13T11:53:07.709Z,947.8
2017-02-13T11:54:15.932Z,947.8
2017-02-13T11:55:23.838Z,947.8
2017-02-13T11:56:31.917Z,947.9
2017-02-13T11:57:40.006Z,947.8
2017-02-13T11:58:48.089Z,947.8
2017-02-13T11:59:56.300Z,947.8
2017-02-13T12:01:04.324Z,947.8
2017-02-13T12:02:12.357Z,947.8
2017-02-13T12:03:20.441Z,947.8
2017-02-13T12:04:28.616Z,947.8
2017-02-13T12:05:36.667Z,947.8
2017-02-13T12:06:44.695Z,947.8
2017-02-13T12:07:52.777Z,947.8
2017-02-13T12:09:00.875Z,947.8
2017-02-13T12:10:09.057Z,947.8
2017-02-13T12:11:17.169Z,947.7
2017-02-13T12:12:25.133Z,947.8
2017-02-13T12:13:33.223Z,947.8
2017-02-13T12:14:41.311Z,947.9
2017-02-13T12:15:49.389Z,947.8
2017-02-13T12:16:57.599Z,947.7
2017-02-13T12:18:05.568Z,947.8
2017-02-13T12:19:13.655Z,947.9
2017-02-13T12:20:21.739Z,947.8
2017-02-13T12:21:29.827Z,947.9
2017-02-13T12:22:38.039Z,947.8
2017-02-13T12:23:46.001Z,947.8
2017-02-13T12:24:54.092Z,947.8
2017-02-13T12:26:02.261Z,947.9
2017-02-13T12:27:10.332Z,947.8
2017-02-13T12:28:18.402Z,947.8
2017-02-13T12:29:26.438Z,947.9
2017-02-13T12:30:34.522Z,947.9
2017-02-13T12:31:42.603Z,947.8
2017-02-13T12:32:50.748Z,947.8
2017-02-13T12:33:58.834Z,947.8
2017-02-13T12:35:06.859Z,947.8
2017-02-13T12:36:15.173Z,947.8
2017-02-13T12:37:23.235Z,947.8
2017-02-13T12:38:31.115Z,947.8
2017-02-13T12:39:39.258Z,947.8
2017-02-13T12:40:47.291Z,947.8
2017-02-13T12:41:55.380Z,947.8
2017-02-13T12:43:03.466Z,947.7
2017-02-13T12:45:31.438Z,947.7
2017-02-13T12:45:33.246Z,947.7
2017-02-13T12:46:27.719Z,947.6
2017-02-13T12:47:35.963Z,947.7
2017-02-13T12:48:46.030Z,947.7
2017-02-13T12:49:51.983Z,947.7
2017-02-13T12:51:00.121Z,947.7
2017-02-13T12:52:08.158Z,947.6
2017-02-13T12:53:16.242Z,947.7
2017-02-13T12:54:24.328Z,947.6
2017-02-13T12:55:32.411Z,947.7
2017-02-13T12:56:40.629Z,947.7
2017-02-13T12:57:48.592Z,947.7
2017-02-13T12:58:56.821Z,947.7
2017-02-13T13:00:04.778Z,947.7
2017-02-13T13:01:12.866Z,947.8
2017-02-13T13:02:21.076Z,947.8
2017-02-13T13:03:29.035Z,947.7
2017-02-13T13:04:37.182Z,947.7
2017-02-13T13:05:45.218Z,947.7
2017-02-13T13:06:53.303Z,947.7
2017-02-13T13:08:01.516Z,947.6
2017-02-13T13:09:09.482Z,947.7
2017-02-13T13:10:17.618Z,947.6
2017-02-13T13:11:25.655Z,947.7
2017-02-13T13:12:33.749Z,947.7
2017-02-13T13:13:41.891Z,947.6
2017-02-13T13:14:49.927Z,947.6
2017-02-13T13:15:58.011Z,947.7
2017-02-13T13:17:06.109Z,947.7
2017-02-13T13:18:14.186Z,947.6
2017-02-13T13:19:22.396Z,947.7
2017-02-13T13:20:30.433Z,947.6
2017-02-13T13:21:38.457Z,947.7
2017-02-13T13:22:46.546Z,947.6
2017-02-13T13:23:54.631Z,947.6
2017-02-13T13:25:02.883Z,947.7
2017-02-13T13:26:10.811Z,947.6
2017-02-13T13:27:18.899Z,947.6
2017-02-13T13:28:26.995Z,947.5
2017-02-13T13:29:35.090Z,947.6
2017-02-13T13:30:43.297Z,947.5
2017-02-13T13:31:51.266Z,947.5
2017-02-13T13:32:59.362Z,947.5
2017-02-13T13:34:07.446Z,947.4
2017-02-13T13:35:15.534Z,947.5
2017-02-13T13:36:23.856Z,947.5
2017-02-13T13:37:31.718Z,947.6
2017-02-13T13:38:39.799Z,947.5
2017-02-13T13:39:47.883Z,947.5
2017-02-13T13:40:55.974Z,947.4
2017-02-13T13:42:04.181Z,947.5
2017-02-13T13:43:12.147Z,947.4
2017-02-13T13:44:20.241Z,947.4
2017-02-13T13:45:28.329Z,947.4
2017-02-13T13:46:36.416Z,947.5
2017-02-13T13:47:44.567Z,947.5
2017-02-13T13:48:52.590Z,947.4
2017-02-13T13:50:00.680Z,947.4
2017-02-13T13:51:08.779Z,947.4
2017-02-13T13:52:16.917Z,947.4
2017-02-13T13:53:25.067Z,947.4
2017-02-13T13:54:33.038Z,947.4
2017-02-13T13:55:41.140Z,947.5
2017-02-13T13:56:49.242Z,947.4
2017-02-13T13:57:57.317Z,947.4
2017-02-13T13:59:05.655Z,947.4
2017-02-13T14:00:13.491Z,947.5
2017-02-13T14:01:21.577Z,947.5
2017-02-13T14:02:29.826Z,947.4
2017-02-13T14:03:37.751Z,947.5
2017-02-13T14:04:45.893Z,947.5
2017-02-13T14:05:53.921Z,947.5
2017-02-13T14:07:02.005Z,947.4
2017-02-13T14:08:10.210Z,947.5
2017-02-13T14:09:18.215Z,947.5
2017-02-13T14:10:26.351Z,947.5
2017-02-13T14:11:34.562Z,947.5
2017-02-13T14:12:42.806Z,947.5
2017-02-13T14:13:50.822Z,947.5
2017-02-13T14:14:58.798Z,947.5
2017-02-13T14:16:06.946Z,947.5
2017-02-13T14:17:14.809Z,947.5
2017-02-13T14:18:22.881Z,947.5
2017-02-13T14:19:30.999Z,947.5
2017-02-13T14:20:39.042Z,947.5
2017-02-13T14:21:47.179Z,947.5
2017-02-13T14:22:55.211Z,947.5
2017-02-13T14:24:03.404Z,947.6
2017-02-13T14:25:11.375Z,947.5
2017-02-13T14:26:19.631Z,947.4
2017-02-13T14:27:27.673Z,947.5
2017-02-13T14:28:35.639Z,947.5
2017-02-13T14:29:43.726Z,947.5
2017-02-13T14:30:51.814Z,947.5
2017-02-13T14:31:59.900Z,947.5
2017-02-13T14:33:08.101Z,947.5
2017-02-13T14:34:16.265Z,947.6
2017-02-13T14:35:24.231Z,947.5
2017-02-13T14:36:32.239Z,947.5